This is the latest recevied weather packets stored in our database for station/object KB9MLJ. If no packets are shown the sender has not sent any weather packets the latest 10 day(s).
| Time | Temp. | Humidity | Pressure | Rain* | Wind** | Luminosity | Snow |
|---|---|---|---|---|---|---|---|
| 1777317203 | 17.22° C | 95% | 1002 hPa | 0 mm | - | 164 W/m² | - |
| 1777316898 | 16.11° C | 99% | 1002 hPa | 0 mm | - | 123 W/m² | - |
| 1777316595 | 15.56° C | 99% | 1002 hPa | 0 mm | - | 104 W/m² | - |
| 1777316292 | 15° C | 99% | 1001.3 hPa | 4.83 mm | - | 76 W/m² | - |
| 1777315989 | 15.56° C | 99% | 1001.6 hPa | 4.83 mm | - | 58 W/m² | - |
| 1777315689 | 15° C | 99% | 1001.3 hPa | 4.83 mm | - | 48 W/m² | - |
| 1777315385 | 15° C | 99% | 1003 hPa | 4.83 mm | - | 38 W/m² | - |
| 1777315084 | 15° C | 99% | 1004.3 hPa | 4.57 mm | - | 29 W/m² | - |
| 1777314783 | 14.44° C | 99% | 1005.4 hPa | 4.57 mm | - | 26 W/m² | - |
| 1777314481 | 14.44° C | 99% | 1006.5 hPa | 4.06 mm | - | 25 W/m² | - |
| 1777314177 | 14.44° C | 99% | 1008.2 hPa | 3.3 mm | - | 20 W/m² | - |
| 1777313876 | 14.44° C | 99% | 1009.5 hPa | 2.54 mm | - | 19 W/m² | - |
| 1777313572 | 14.44° C | 99% | 1009.9 hPa | 1.78 mm | - | 17 W/m² | - |
| 1777313270 | 14.44° C | 99% | 1010.5 hPa | 1.02 mm | - | 16 W/m² | - |
| 1777312966 | 14.44° C | 99% | 1010.9 hPa | 0.25 mm | - | 16 W/m² | - |
| 1777312662 | 14.44° C | 99% | 1010.9 hPa | 7.62 mm | - | 17 W/m² | - |
| 1777312360 | 14.44° C | 98% | 1010.9 hPa | 6.6 mm | - | 15 W/m² | - |
| 1777312057 | 13.89° C | 98% | 1010.5 hPa | 6.1 mm | - | 10 W/m² | - |
| 1777311753 | 13.89° C | 98% | 1010.9 hPa | 5.59 mm | - | 9 W/m² | - |
| 1777311451 | 14.44° C | 98% | 1010.2 hPa | 4.83 mm | - | 10 W/m² | - |
| 1777311148 | 14.44° C | 97% | 1009.9 hPa | 3.56 mm | - | 11 W/m² | - |
| 1777310846 | 14.44° C | 97% | 1010.2 hPa | 3.05 mm | - | 9 W/m² | - |
| 1777310543 | 14.44° C | 97% | 1010.2 hPa | 2.29 mm | - | 9 W/m² | - |
| 1777310240 | 14.44° C | 96% | 1010.2 hPa | 1.78 mm | - | 8 W/m² | - |
| 1777309938 | 14.44° C | 96% | 1010.2 hPa | 1.02 mm | - | 6 W/m² | - |
* Rain latest hour (hover to see other rain measurements)
** Current wind speed in m/s (hover to see current wind gust speed)